Time;durP1;ratioP1;P1;durP2;ratioP2;P2;SDS_P1;SDS_P2;PMS_P1;PMS_P2;Temp;Humidity;BMP_temperature;BMP_pressure;BME280_temperature;BME280_humidity;BME280_pressure;Samples;Min_cycle;Max_cycle;Signal;HPM_P1;HPM_P2
2022/04/07 00:00:03;;;;;;;;;;;9.30;99.90;;;;;;4897451;29;20362;-77
2022/04/07 00:02:29;;;;;;;;;;;9.20;99.90;;;;;;4915203;29;19923;-77
2022/04/07 00:04:55;;;;;;;;;;;9.20;99.90;;;;;;4915303;29;20368;-76
2022/04/07 00:07:22;;;;;;;;;;;9.10;99.90;;;;;;4915750;29;19930;-78
2022/04/07 00:09:48;;;;;;;;;;;9.10;99.90;;;;;;4915613;29;19923;-78
2022/04/07 00:12:14;;;;;;;;;;;9.00;99.90;;;;;;4914311;29;19927;-78
2022/04/07 00:14:39;;;;;;;;;;;8.90;99.90;;;;;;4915104;29;19931;-81
2022/04/07 00:17:05;;;;;;;;;;;8.80;99.90;;;;;;4899981;29;19927;-77
2022/04/07 00:19:31;;;;;;;;;;;8.80;99.90;;;;;;4914221;29;19983;-77
2022/04/07 00:21:57;;;;;;;;;;;8.80;99.90;;;;;;4899234;29;19923;-76
2022/04/07 00:24:23;;;;;;;;;;;8.70;99.90;;;;;;4902902;29;19927;-82
2022/04/07 00:26:49;;;;;;;;;;;8.70;99.90;;;;;;4898523;29;19923;-79
2022/04/07 00:29:14;;;;;;;;;;;8.70;99.90;;;;;;4914677;29;19923;-77
2022/04/07 00:31:40;;;;;;;;;;;8.70;99.90;;;;;;4899079;29;19943;-77
2022/04/07 00:34:06;;;;;;;;;;;8.70;99.90;;;;;;4899842;29;19950;-77
2022/04/07 00:36:31;;;;;;;;;;;8.80;99.90;;;;;;4895544;29;20292;-77
2022/04/07 00:38:57;;;;;;;;;;;8.90;99.90;;;;;;4895974;29;20018;-77
2022/04/07 00:41:22;;;;;;;;;;;9.00;99.90;;;;;;4896313;29;19923;-77
2022/04/07 00:43:51;;;;;;;;;;;9.00;99.90;;;;;;4894538;29;19975;-77
2022/04/07 00:46:18;;;;;;;;;;;9.00;99.90;;;;;;4895979;29;19930;-77
2022/04/07 00:48:43;;;;;;;;;;;8.90;99.90;;;;;;4895627;29;19974;-78
2022/04/07 00:51:09;;;;;;;;;;;8.90;99.90;;;;;;4897300;29;19985;-78
2022/04/07 00:53:35;;;;;;;;;;;8.90;99.90;;;;;;4913100;29;19923;-78
2022/04/07 00:56:01;;;;;;;;;;;8.90;99.90;;;;;;4899146;29;20285;-79
2022/04/07 00:58:28;;;;;;;;;;;8.90;99.90;;;;;;4902824;29;19923;-83
2022/04/07 01:00:54;;;;;;;;;;;8.90;99.90;;;;;;4895666;29;19927;-78
2022/04/07 01:03:19;;;;;;;;;;;8.90;99.90;;;;;;4880441;29;20026;-78
2022/04/07 01:05:45;;;;;;;;;;;8.90;99.90;;;;;;4894724;29;20598;-77
2022/04/07 01:08:10;;;;;;;;;;;8.90;99.90;;;;;;4903262;29;19923;-78
2022/04/07 01:10:37;;;;;;;;;;;8.90;99.90;;;;;;4913729;29;19923;-78
2022/04/07 01:13:03;;;;;;;;;;;8.90;99.90;;;;;;4894241;29;19927;-78
2022/04/07 01:15:29;;;;;;;;;;;8.90;99.90;;;;;;4895453;29;19983;-82
2022/04/07 01:17:55;;;;;;;;;;;8.90;99.90;;;;;;4895584;29;19930;-77
2022/04/07 01:20:21;;;;;;;;;;;8.80;99.90;;;;;;4879763;29;19930;-77
2022/04/07 01:22:48;;;;;;;;;;;8.80;99.90;;;;;;4895121;29;20017;-78
2022/04/07 01:25:13;;;;;;;;;;;8.80;99.90;;;;;;4895080;29;19930;-78
2022/04/07 01:27:39;;;;;;;;;;;8.70;99.90;;;;;;4911028;29;19923;-77
2022/04/07 01:30:07;;;;;;;;;;;8.80;99.90;;;;;;4895502;29;19927;-77
2022/04/07 01:32:36;;;;;;;;;;;8.90;99.90;;;;;;4894917;29;19923;-77
2022/04/07 01:35:02;;;;;;;;;;;8.90;99.90;;;;;;4894868;29;19933;-77
2022/04/07 01:37:29;;;;;;;;;;;8.90;99.90;;;;;;4895016;29;19923;-82
2022/04/07 01:39:55;;;;;;;;;;;8.90;99.90;;;;;;4894931;29;19923;-77
2022/04/07 01:42:20;;;;;;;;;;;9.60;99.90;;;;;;4893903;29;19931;-78
2022/04/07 01:44:46;;;;;;;;;;;8.90;99.90;;;;;;4879099;29;19923;-77
2022/04/07 01:47:13;;;;;;;;;;;8.90;99.90;;;;;;4895470;29;19935;-77
2022/04/07 01:49:39;;;;;;;;;;;8.90;99.90;;;;;;4893938;29;19927;-78
2022/04/07 01:52:05;;;;;;;;;;;8.90;99.90;;;;;;4883338;29;19927;-78
2022/04/07 01:54:31;;;;;;;;;;;8.80;99.90;;;;;;4894167;29;19931;-84
2022/04/07 01:56:58;;;;;;;;;;;8.80;99.90;;;;;;4906909;29;20006;-79
2022/04/07 01:59:24;;;;;;;;;;;8.80;99.90;;;;;;4913659;29;19923;-78
2022/04/07 02:01:49;;;;;;;;;;;8.80;99.90;;;;;;4898746;29;19933;-78
2022/04/07 02:04:15;;;;;;;;;;;8.80;99.90;;;;;;4895020;29;20018;-78
2022/04/07 02:06:40;;;;;;;;;;;8.80;99.90;;;;;;4898183;29;20433;-78
2022/04/07 02:09:06;;;;;;;;;;;8.80;99.90;;;;;;4899295;29;20294;-77
2022/04/07 02:11:32;;;;;;;;;;;8.80;99.90;;;;;;4917564;29;19931;-83
2022/04/07 02:13:58;;;;;;;;;;;8.70;99.90;;;;;;4916100;29;19923;-78
2022/04/07 02:16:23;;;;;;;;;;;8.70;99.90;;;;;;4917679;29;19923;-77
2022/04/07 02:18:49;;;;;;;;;;;8.70;99.90;;;;;;4917136;29;19966;-78
2022/04/07 02:21:14;;;;;;;;;;;8.70;99.90;;;;;;4901531;29;20373;-77
2022/04/07 02:23:42;;;;;;;;;;;8.60;99.90;;;;;;4916205;29;19927;-77
2022/04/07 02:26:11;;;;;;;;;;;8.60;99.90;;;;;;4901652;29;19923;-77
2022/04/07 02:28:37;;;;;;;;;;;8.60;99.90;;;;;;4897031;29;19975;-77
2022/04/07 02:31:02;;;;;;;;;;;8.60;99.90;;;;;;4898561;29;19931;-77
2022/04/07 02:33:28;;;;;;;;;;;8.60;99.90;;;;;;4909788;29;19923;-76
2022/04/07 02:35:53;;;;;;;;;;;8.60;99.90;;;;;;4916147;29;19987;-77
2022/04/07 02:38:19;;;;;;;;;;;8.60;99.90;;;;;;4906829;29;19950;-77
2022/04/07 02:40:45;;;;;;;;;;;8.60;99.90;;;;;;4882250;29;19934;-77
2022/04/07 02:43:11;;;;;;;;;;;8.60;99.90;;;;;;4897392;29;20361;-77
2022/04/07 02:45:36;;;;;;;;;;;8.60;99.90;;;;;;4897726;29;19923;-77
2022/04/07 02:48:02;;;;;;;;;;;8.60;99.90;;;;;;4898618;29;19977;-77
2022/04/07 02:50:28;;;;;;;;;;;8.60;99.90;;;;;;4897947;29;19924;-77
2022/04/07 02:52:53;;;;;;;;;;;8.60;99.90;;;;;;4910965;29;20409;-77
2022/04/07 02:55:19;;;;;;;;;;;8.70;99.90;;;;;;4913865;29;20026;-77
2022/04/07 02:57:44;;;;;;;;;;;8.70;99.90;;;;;;4896299;29;19931;-78
2022/04/07 03:00:10;;;;;;;;;;;8.70;99.90;;;;;;4898080;29;20365;-78
2022/04/07 03:02:36;;;;;;;;;;;8.70;99.90;;;;;;4897640;29;20075;-82
2022/04/07 03:05:02;;;;;;;;;;;8.70;99.90;;;;;;4897433;29;19931;-76
2022/04/07 03:07:27;;;;;;;;;;;8.70;99.90;;;;;;4897753;29;19923;-76
2022/04/07 03:09:53;;;;;;;;;;;8.60;99.90;;;;;;4897455;29;19927;-77
2022/04/07 03:12:18;;;;;;;;;;;8.50;99.90;;;;;;4897332;29;19923;-77
2022/04/07 03:14:44;;;;;;;;;;;8.70;99.90;;;;;;4881966;29;20296;-78
2022/04/07 03:17:09;;;;;;;;;;;8.40;99.90;;;;;;4883185;29;19924;-78
2022/04/07 03:19:35;;;;;;;;;;;8.40;99.90;;;;;;4897581;29;19933;-83
2022/04/07 03:22:01;;;;;;;;;;;8.40;99.90;;;;;;4897407;29;20267;-79
2022/04/07 03:24:26;;;;;;;;;;;8.40;99.90;;;;;;4916971;29;19970;-77
2022/04/07 03:26:52;;;;;;;;;;;8.40;99.90;;;;;;4915226;29;20537;-78
2022/04/07 03:29:21;;;;;;;;;;;8.40;99.90;;;;;;4899784;29;19985;-77
2022/04/07 03:31:48;;;;;;;;;;;8.40;99.90;;;;;;4915279;29;19930;-77
2022/04/07 03:34:13;;;;;;;;;;;8.30;99.90;;;;;;4900728;29;20017;-77
2022/04/07 03:36:39;;;;;;;;;;;8.30;99.90;;;;;;4915113;29;20035;-79
2022/04/07 03:39:05;;;;;;;;;;;8.30;99.90;;;;;;4915846;29;19967;-78
2022/04/07 03:41:30;;;;;;;;;;;8.30;99.90;;;;;;4916370;29;20013;-77
2022/04/07 03:43:56;;;;;;;;;;;8.30;99.90;;;;;;4898146;29;19986;-77
2022/04/07 03:46:22;;;;;;;;;;;8.30;99.90;;;;;;4897293;29;20362;-79
2022/04/07 03:48:49;;;;;;;;;;;8.30;99.90;;;;;;4897063;29;19924;-78
2022/04/07 03:51:14;;;;;;;;;;;8.30;99.90;;;;;;4898458;29;19973;-77
2022/04/07 03:53:40;;;;;;;;;;;8.20;99.90;;;;;;4899394;29;19974;-80
2022/04/07 03:56:06;;;;;;;;;;;8.20;99.90;;;;;;4916095;29;19927;-79
2022/04/07 03:58:31;;;;;;;;;;;8.20;99.90;;;;;;4915199;29;19923;-80
2022/04/07 04:00:58;;;;;;;;;;;8.20;99.90;;;;;;4915417;29;19923;-79
2022/04/07 04:03:23;;;;;;;;;;;8.20;99.90;;;;;;4916144;29;20009;-78
2022/04/07 04:05:49;;;;;;;;;;;8.20;99.90;;;;;;4914615;29;20448;-78
2022/04/07 04:08:14;;;;;;;;;;;8.20;99.90;;;;;;4898982;29;20400;-77
2022/04/07 04:10:40;;;;;;;;;;;8.20;99.90;;;;;;4915145;29;19982;-83
2022/04/07 04:13:05;;;;;;;;;;;8.20;99.90;;;;;;4914726;29;19973;-78
2022/04/07 04:15:31;;;;;;;;;;;8.20;99.90;;;;;;4915708;29;20334;-79
2022/04/07 04:17:57;;;;;;;;;;;8.20;99.90;;;;;;4915088;29;20065;-78
2022/04/07 04:20:22;;;;;;;;;;;8.30;99.90;;;;;;4914677;29;19927;-78
2022/04/07 04:22:48;;;;;;;;;;;8.30;99.90;;;;;;4901323;29;19923;-77
2022/04/07 04:25:13;;;;;;;;;;;8.20;99.90;;;;;;4896636;29;19927;-77
2022/04/07 04:27:40;;;;;;;;;;;8.20;99.90;;;;;;4910386;29;19927;-83
2022/04/07 04:30:06;;;;;;;;;;;8.20;99.90;;;;;;4890668;29;19923;-77
2022/04/07 04:32:32;;;;;;;;;;;8.10;99.90;;;;;;4896480;29;19927;-77
2022/04/07 04:34:57;;;;;;;;;;;8.10;99.90;;;;;;4895584;29;20365;-77
2022/04/07 04:37:26;;;;;;;;;;;8.20;99.90;;;;;;4896085;29;20326;-77
2022/04/07 04:39:52;;;;;;;;;;;8.20;99.90;;;;;;4895664;29;19951;-77
2022/04/07 04:42:18;;;;;;;;;;;8.20;99.90;;;;;;4894838;29;19927;-77
2022/04/07 04:44:45;;;;;;;;;;;8.20;99.90;;;;;;4895618;29;20369;-78
2022/04/07 04:47:11;;;;;;;;;;;8.20;99.90;;;;;;4895697;29;20029;-79
2022/04/07 04:49:39;;;;;;;;;;;8.20;99.90;;;;;;4900680;29;19954;-80
2022/04/07 04:52:05;;;;;;;;;;;8.20;99.90;;;;;;4895163;29;19938;-79
2022/04/07 04:54:31;;;;;;;;;;;8.20;99.90;;;;;;4895648;29;19927;-78
2022/04/07 04:56:57;;;;;;;;;;;8.10;99.90;;;;;;4895966;29;20070;-78
2022/04/07 04:59:23;;;;;;;;;;;8.10;99.90;;;;;;4895483;29;19963;-78
2022/04/07 05:01:48;;;;;;;;;;;8.10;99.90;;;;;;4895610;29;19934;-78
2022/04/07 05:04:14;;;;;;;;;;;8.10;99.90;;;;;;4895824;29;19975;-78
2022/04/07 05:06:39;;;;;;;;;;;8.10;99.90;;;;;;4879456;29;19930;-78
2022/04/07 05:09:05;;;;;;;;;;;8.10;99.90;;;;;;4885056;29;19930;-79
2022/04/07 05:11:30;;;;;;;;;;;8.20;99.90;;;;;;4883366;29;20348;-78
2022/04/07 05:13:56;;;;;;;;;;;8.20;99.90;;;;;;4902644;29;19939;-79
2022/04/07 05:16:21;;;;;;;;;;;8.20;99.90;;;;;;4895684;29;20366;-79
2022/04/07 05:18:49;;;;;;;;;;;8.20;99.90;;;;;;4898380;29;20030;-78
2022/04/07 05:21:15;;;;;;;;;;;8.20;99.90;;;;;;4914162;29;20029;-78
2022/04/07 05:23:40;;;;;;;;;;;8.20;99.90;;;;;;4901873;29;19930;-79
2022/04/07 05:26:06;;;;;;;;;;;8.10;99.90;;;;;;4900716;29;19923;-78
2022/04/07 05:28:32;;;;;;;;;;;8.20;99.90;;;;;;4897646;29;19923;-78
2022/04/07 05:30:57;;;;;;;;;;;8.20;99.90;;;;;;4912302;29;20009;-79
2022/04/07 05:33:23;;;;;;;;;;;8.20;99.90;;;;;;4914600;29;19927;-79
2022/04/07 05:35:48;;;;;;;;;;;8.20;99.90;;;;;;4897478;29;19923;-79
2022/04/07 05:38:14;;;;;;;;;;;8.20;99.90;;;;;;4914084;29;19937;-79
2022/04/07 05:40:40;;;;;;;;;;;8.20;99.90;;;;;;4914189;29;20290;-81
2022/04/07 05:43:05;;;;;;;;;;;8.20;99.90;;;;;;4896946;29;19934;-79
2022/04/07 05:45:31;;;;;;;;;;;8.20;99.90;;;;;;4913896;29;19945;-80
2022/04/07 05:47:57;;;;;;;;;;;8.20;99.90;;;;;;4913762;29;19923;-80
2022/04/07 05:50:23;;;;;;;;;;;8.20;99.90;;;;;;4898077;29;19949;-80
2022/04/07 05:52:48;;;;;;;;;;;8.20;99.90;;;;;;4913170;29;19927;-79
2022/04/07 05:55:14;;;;;;;;;;;8.20;99.90;;;;;;4895655;29;19950;-79
2022/04/07 05:57:40;;;;;;;;;;;8.20;99.90;;;;;;4894068;29;20342;-81
2022/04/07 06:00:05;;;;;;;;;;;8.20;99.90;;;;;;4903167;29;19926;-79
2022/04/07 06:02:31;;;;;;;;;;;8.20;99.90;;;;;;4914011;29;19923;-79
2022/04/07 06:04:56;;;;;;;;;;;8.20;99.90;;;;;;4893778;29;19923;-80
2022/04/07 06:07:22;;;;;;;;;;;8.20;99.90;;;;;;4879448;29;19950;-79
2022/04/07 06:09:48;;;;;;;;;;;8.20;99.90;;;;;;4894643;29;19923;-82
2022/04/07 06:12:13;;;;;;;;;;;8.20;99.90;;;;;;4864114;29;19931;-80
2022/04/07 06:14:39;;;;;;;;;;;8.20;99.90;;;;;;4906087;29;20453;-79
2022/04/07 06:17:04;;;;;;;;;;;8.20;99.90;;;;;;4895665;29;19935;-79
2022/04/07 06:19:30;;;;;;;;;;;7.80;99.90;;;;;;4898006;29;20014;-79
2022/04/07 06:21:55;;;;;;;;;;;6.50;99.90;;;;;;4912759;29;19923;-81
2022/04/07 06:24:21;;;;;;;;;;;5.60;99.90;;;;;;4913564;29;20014;-80
2022/04/07 06:26:49;;;;;;;;;;;5.20;99.90;;;;;;4897562;29;19923;-85
2022/04/07 06:29:15;;;;;;;;;;;5.10;99.90;;;;;;4910642;29;20437;-79
2022/04/07 06:31:40;;;;;;;;;;;5.10;99.90;;;;;;4907160;29;19927;-79
2022/04/07 06:34:06;;;;;;;;;;;5.20;99.90;;;;;;4897558;29;19978;-80
2022/04/07 06:36:31;;;;;;;;;;;5.20;99.90;;;;;;4913962;29;20022;-79
2022/04/07 06:38:57;;;;;;;;;;;5.20;99.90;;;;;;4896962;29;20262;-80
2022/04/07 06:41:22;;;;;;;;;;;5.20;99.90;;;;;;4894119;29;19935;-79
2022/04/07 06:43:48;;;;;;;;;;;5.20;99.90;;;;;;4894508;29;19934;-86
2022/04/07 06:46:13;;;;;;;;;;;5.30;99.90;;;;;;4879350;29;20445;-79
2022/04/07 06:48:39;;;;;;;;;;;5.40;99.90;;;;;;4879661;29;19930;-79
2022/04/07 06:51:04;;;;;;;;;;;5.20;99.90;;;;;;4880947;29;19928;-78
2022/04/07 06:53:30;;;;;;;;;;;5.20;99.90;;;;;;4915257;29;19923;-78
2022/04/07 06:55:56;;;;;;;;;;;5.10;99.90;;;;;;4898180;29;19970;-80
2022/04/07 06:58:21;;;;;;;;;;;5.00;99.90;;;;;;4883275;29;19980;-79
2022/04/07 07:00:47;;;;;;;;;;;5.00;99.90;;;;;;4899105;29;19983;-78
2022/04/07 07:03:14;;;;;;;;;;;4.90;99.90;;;;;;4898557;29;19935;-79
2022/04/07 07:05:40;;;;;;;;;;;4.80;99.90;;;;;;4898636;29;20067;-79
2022/04/07 07:08:21;;;;;;;;;;;4.80;99.90;;;;;;4898633;29;20029;-79
2022/04/07 07:10:48;;;;;;;;;;;4.70;99.90;;;;;;4898741;29;20006;-80
2022/04/07 07:13:16;;;;;;;;;;;4.60;99.90;;;;;;4897144;29;19924;-79
2022/04/07 07:15:42;;;;;;;;;;;4.70;99.90;;;;;;4898643;29;19923;-79
2022/04/07 07:18:07;;;;;;;;;;;4.60;99.90;;;;;;4900776;29;20366;-80
2022/04/07 07:20:33;;;;;;;;;;;5.00;99.90;;;;;;4897818;29;20014;-79
2022/04/07 07:22:59;;;;;;;;;;;4.50;99.90;;;;;;4897896;29;20018;-79
2022/04/07 07:25:25;;;;;;;;;;;5.00;99.90;;;;;;4882455;29;20018;-80
2022/04/07 07:27:50;;;;;;;;;;;4.40;99.90;;;;;;4897575;29;20381;-83
2022/04/07 07:30:17;;;;;;;;;;;4.40;99.90;;;;;;4897883;29;19935;-81
2022/04/07 07:32:43;;;;;;;;;;;4.20;99.90;;;;;;4898097;29;20350;-79
2022/04/07 07:35:10;;;;;;;;;;;4.40;99.90;;;;;;4897490;29;19927;-80
2022/04/07 07:37:36;;;;;;;;;;;4.40;99.90;;;;;;4882096;29;19930;-79
2022/04/07 07:40:06;;;;;;;;;;;4.60;99.90;;;;;;4888301;29;20366;-79
2022/04/07 07:42:31;;;;;;;;;;;4.40;99.90;;;;;;4896865;29;20018;-80
2022/04/07 07:44:57;;;;;;;;;;;4.30;99.90;;;;;;4893086;29;20023;-79
2022/04/07 07:47:22;;;;;;;;;;;4.30;99.90;;;;;;4881937;29;19927;-79
2022/04/07 07:49:48;;;;;;;;;;;4.30;99.90;;;;;;4897190;29;20341;-80
2022/04/07 07:52:14;;;;;;;;;;;4.20;99.90;;;;;;4896995;29;19999;-80
2022/04/07 07:54:39;;;;;;;;;;;4.30;99.90;;;;;;4901542;29;19923;-80
2022/04/07 07:57:05;;;;;;;;;;;4.20;99.90;;;;;;4901901;29;20393;-83
2022/04/07 07:59:30;;;;;;;;;;;4.20;99.90;;;;;;4884870;29;19978;-81
2022/04/07 08:01:56;;;;;;;;;;;4.10;99.90;;;;;;4899267;29;19923;-80
2022/04/07 08:04:21;;;;;;;;;;;4.20;99.90;;;;;;4905125;29;19923;-81
2022/04/07 08:06:47;;;;;;;;;;;4.20;99.90;;;;;;4902093;29;19924;-81
2022/04/07 08:09:14;;;;;;;;;;;4.20;99.90;;;;;;4900187;29;19970;-81
2022/04/07 08:11:41;;;;;;;;;;;4.30;99.90;;;;;;4884931;29;19923;-82
2022/04/07 08:14:06;;;;;;;;;;;4.30;99.90;;;;;;4895653;29;19930;-81
2022/04/07 08:16:32;;;;;;;;;;;4.30;99.90;;;;;;4907681;29;19931;-81
2022/04/07 08:18:58;;;;;;;;;;;4.30;99.90;;;;;;4880294;29;19923;-82
2022/04/07 08:21:24;;;;;;;;;;;4.20;99.90;;;;;;4880697;29;20365;-81
2022/04/07 08:23:49;;;;;;;;;;;4.50;99.90;;;;;;4898335;29;19970;-87
2022/04/07 08:26:15;;;;;;;;;;;4.50;99.90;;;;;;4914580;29;20116;-81
2022/04/07 08:28:41;;;;;;;;;;;4.50;99.90;;;;;;4913934;29;19923;-82
2022/04/07 08:31:07;;;;;;;;;;;4.70;99.90;;;;;;4915103;29;19923;-88
2022/04/07 08:33:32;;;;;;;;;;;4.60;99.90;;;;;;4914672;29;19927;-86
2022/04/07 08:35:58;;;;;;;;;;;4.60;99.90;;;;;;4898098;29;19926;-84
2022/04/07 08:38:23;;;;;;;;;;;4.60;99.90;;;;;;4882368;29;20062;-88
2022/04/07 08:40:51;;;;;;;;;;;4.60;99.90;;;;;;4914446;29;19923;-88
2022/04/07 08:43:17;;;;;;;;;;;4.80;99.90;;;;;;4886168;29;20428;-87
2022/04/07 08:45:43;;;;;;;;;;;4.90;99.90;;;;;;4880279;29;19954;-88
2022/04/07 08:48:10;;;;;;;;;;;4.70;99.90;;;;;;4880122;29;19929;-86
2022/04/07 08:50:37;;;;;;;;;;;5.70;99.90;;;;;;4879946;29;19931;-88
2022/04/07 08:53:03;;;;;;;;;;;4.80;99.90;;;;;;4879567;29;19931;-89
2022/04/07 08:55:29;;;;;;;;;;;4.90;99.90;;;;;;4880336;29;20456;-88
2022/04/07 08:57:54;;;;;;;;;;;4.90;99.90;;;;;;4894704;29;20391;-88
2022/04/07 09:00:21;;;;;;;;;;;4.80;99.90;;;;;;4879786;29;19976;-88
2022/04/07 09:02:47;;;;;;;;;;;5.30;99.90;;;;;;4898120;29;19927;-86
2022/04/07 09:05:12;;;;;;;;;;;5.30;99.90;;;;;;4902906;29;19931;-86
2022/04/07 09:07:38;;;;;;;;;;;5.00;99.90;;;;;;4895446;29;19923;-86
2022/04/07 09:10:04;;;;;;;;;;;5.20;99.90;;;;;;4894954;29;19923;-88
2022/04/07 09:12:30;;;;;;;;;;;5.40;99.90;;;;;;4878609;29;20616;-88
2022/04/07 09:14:57;;;;;;;;;;;5.50;99.90;;;;;;4895822;29;20085;-89
2022/04/07 09:17:23;;;;;;;;;;;5.70;99.90;;;;;;4895843;29;19937;-89
2022/04/07 09:19:49;;;;;;;;;;;5.70;99.90;;;;;;4895611;29;19927;-89
2022/04/07 09:22:15;;;;;;;;;;;5.90;99.90;;;;;;4895297;29;19928;-89
2022/04/07 09:24:41;;;;;;;;;;;6.00;99.90;;;;;;4880227;29;20035;-89
2022/04/07 09:27:08;;;;;;;;;;;6.10;99.90;;;;;;4903367;29;19934;-86
2022/04/07 09:29:39;;;;;;;;;;;6.30;99.90;;;;;;4904920;29;19930;-87
2022/04/07 09:32:15;;;;;;;;;;;6.40;99.90;;;;;;4895029;29;20021;-87
2022/04/07 09:34:43;;;;;;;;;;;6.50;99.90;;;;;;4900989;29;19927;-86
2022/04/07 09:37:09;;;;;;;;;;;6.80;99.90;;;;;;4885283;29;20313;-86
2022/04/07 09:39:39;;;;;;;;;;;6.70;99.90;;;;;;4891315;29;20018;-86
2022/04/07 09:42:21;;;;;;;;;;;6.80;99.90;;;;;;4894509;29;19954;-86
2022/04/07 09:44:51;;;;;;;;;;;6.90;99.90;;;;;;4896396;29;19935;-85
2022/04/07 09:47:17;;;;;;;;;;;7.10;99.90;;;;;;4907837;29;20373;-85
2022/04/07 09:49:43;;;;;;;;;;;7.40;99.90;;;;;;4906067;29;20019;-85
2022/04/07 09:52:10;;;;;;;;;;;8.20;99.90;;;;;;4896603;29;20006;-86
2022/04/07 09:54:37;;;;;;;;;;;7.50;99.90;;;;;;4903439;29;20001;-86
2022/04/07 09:57:04;;;;;;;;;;;7.60;99.90;;;;;;4900422;29;19935;-86
2022/04/07 09:59:30;;;;;;;;;;;7.70;99.90;;;;;;4890259;29;20052;-86
2022/04/07 10:01:57;;;;;;;;;;;7.80;99.90;;;;;;4904089;29;20026;-86
2022/04/07 10:04:22;;;;;;;;;;;7.90;99.90;;;;;;4907500;29;20134;-88
2022/04/07 10:06:48;;;;;;;;;;;7.90;99.90;;;;;;4905000;29;19978;-87
2022/04/07 10:09:14;;;;;;;;;;;8.10;99.90;;;;;;4904014;29;19927;-89
2022/04/07 10:13:08;;;;;;;0.20;0.20;;;8.20;99.90;;;;;;5139780;27;1333557;-87
2022/04/07 10:15:36;;;;;;;0.20;0.20;;;8.20;99.90;;;;;;5132083;27;20047;-89
2022/04/07 10:18:08;;;;;;;0.20;0.20;;;8.10;99.90;;;;;;5142258;27;20080;-89
2022/04/07 10:20:38;;;;;;;0.20;0.20;;;8.20;99.90;;;;;;5145211;27;20100;-89
2022/04/07 10:23:36;;;;;;;0.20;0.20;;;8.20;99.90;;;;;;5131151;27;20099;-88
2022/04/07 10:26:03;;;;;;;0.30;0.30;;;8.10;99.90;;;;;;5140155;27;20076;-89
2022/04/07 10:28:29;;;;;;;0.20;0.20;;;8.10;99.90;;;;;;5147097;27;20042;-88
2022/04/07 10:30:55;;;;;;;;;;;8.10;99.90;;;;;;5132228;27;20049;-88
2022/04/07 10:33:33;;;;;;;0.20;0.20;;;8.10;99.90;;;;;;5143483;27;19923;-90
2022/04/07 10:35:59;;;;;;;0.20;0.20;;;8.20;99.90;;;;;;5146842;27;20046;-88
2022/04/07 10:38:41;;;;;;;;;;;8.30;99.90;;;;;;5150679;27;20047;-89
2022/04/07 10:41:08;;;;;;;0.30;0.30;;;8.40;99.90;;;;;;5149479;27;19964;-87
2022/04/07 10:43:38;;;;;;;;;;;8.40;99.90;;;;;;5149785;27;20038;-90
2022/04/07 10:46:09;;;;;;;0.20;0.20;;;8.50;99.90;;;;;;5134031;27;19924;-89
2022/04/07 10:48:36;;;;;;;0.20;0.20;;;8.50;99.90;;;;;;5151728;27;20035;-89
2022/04/07 10:51:09;;;;;;;0.40;0.40;;;8.50;99.90;;;;;;5132920;27;20054;-90
2022/04/07 10:53:36;;;;;;;9.75;2.03;;;8.80;99.90;;;;;;5145730;27;20118;-89
2022/04/07 10:56:02;;;;;;;9.45;2.33;;;9.00;99.90;;;;;;5145527;27;20042;-91
2022/04/07 10:58:42;;;;;;;13.48;2.30;;;9.20;99.90;;;;;;5125831;27;20049;-91
2022/04/07 11:01:32;;;;;;;12.35;2.58;;;9.30;99.90;;;;;;5133155;27;20071;-88
2022/04/07 11:04:25;;;;;;;8.45;1.88;;;9.50;99.90;;;;;;5133268;27;20509;-90
2022/04/07 11:10:11;;;;;;;10.27;2.63;;;9.50;99.90;;;;;;5150294;27;20051;-89
2022/04/07 11:12:38;;;;;;;10.35;1.98;;;9.50;99.90;;;;;;5147493;27;20118;-87
2022/04/07 11:15:03;;;;;;;9.25;1.50;;;9.70;99.90;;;;;;5124958;27;20100;-90
2022/04/07 11:17:41;;;;;;;5.70;1.30;;;9.60;99.90;;;;;;5148327;27;20620;-89
2022/04/07 11:20:30;;;;;;;11.88;2.00;;;9.90;99.90;;;;;;5131732;27;20388;-91
2022/04/07 11:23:05;;;;;;;9.88;1.83;;;9.70;99.90;;;;;;5116136;27;20370;-89
2022/04/07 11:25:34;;;;;;;4.65;1.60;;;9.70;99.90;;;;;;5131577;27;20085;-89
2022/04/07 11:28:04;;;;;;;11.65;2.22;;;9.60;99.90;;;;;;5128780;27;20057;-89
2022/04/07 11:30:46;;;;;;;7.05;1.60;;;9.20;99.90;;;;;;5133644;27;20047;-86
2022/04/07 11:33:18;;;;;;;9.70;1.98;;;8.80;99.90;;;;;;5133229;27;20047;-87
2022/04/07 11:35:59;;;;;;;10.20;2.45;;;8.60;99.90;;;;;;5133189;27;20555;-87
2022/04/07 11:38:25;;;;;;;8.68;1.60;;;8.60;99.90;;;;;;5115944;27;20086;-87
2022/04/07 11:41:02;;;;;;;7.85;1.98;;;8.70;99.90;;;;;;5133992;27;20043;-88
2022/04/07 11:43:28;;;;;;;12.23;2.00;;;8.90;99.90;;;;;;5133429;27;20137;-89
2022/04/07 11:45:55;;;;;;;7.75;1.63;;;9.20;99.90;;;;;;5133838;27;20106;-90
2022/04/07 11:48:23;;;;;;;8.27;2.35;;;9.50;99.90;;;;;;5134331;27;20134;-91
2022/04/07 11:50:49;;;;;;;10.73;2.00;;;9.70;99.90;;;;;;5134137;27;20039;-91
2022/04/07 11:53:17;;;;;;;9.63;2.03;;;9.80;99.90;;;;;;5117294;27;20047;-84
2022/04/07 11:55:43;;;;;;;7.72;1.90;;;9.90;99.90;;;;;;5133504;27;20031;-87
2022/04/07 11:58:15;;;;;;;10.32;2.28;;;10.00;99.90;;;;;;5096443;27;20071;-90
2022/04/07 12:00:41;;;;;;;8.15;1.88;;;10.00;99.90;;;;;;5113434;27;20183;-86
2022/04/07 12:03:06;;;;;;;9.48;1.58;;;10.20;99.90;;;;;;5122856;27;20072;-84
2022/04/07 12:05:39;;;;;;;10.18;2.25;;;9.80;99.90;;;;;;5110335;28;20074;-86
2022/04/07 12:08:12;;;;;;;8.77;1.98;;;9.70;99.90;;;;;;5113009;27;20079;-85
2022/04/07 12:10:39;;;;;;;6.18;1.63;;;9.80;99.90;;;;;;5131506;27;20047;-85
2022/04/07 12:13:06;;;;;;;9.30;1.80;;;9.90;99.90;;;;;;5129766;27;20141;-85
2022/04/07 12:15:34;;;;;;;6.70;1.60;;;10.10;99.90;;;;;;5131120;27;20086;-84
2022/04/07 12:18:02;;;;;;;9.57;2.55;;;10.10;99.90;;;;;;5114514;27;20055;-83
2022/04/07 12:20:28;;;;;;;10.00;2.30;;;10.30;99.90;;;;;;5130244;27;20127;-84
2022/04/07 12:23:07;;;;;;;7.72;2.00;;;10.40;99.90;;;;;;5131120;27;20138;-83
2022/04/07 12:25:34;;;;;;;10.23;2.13;;;10.30;99.90;;;;;;5130198;27;20068;-82
2022/04/07 12:28:10;;;;;;;12.48;2.00;;;10.20;99.90;;;;;;5129843;27;20096;-84
2022/04/07 12:30:42;;;;;;;10.82;1.98;;;10.00;99.90;;;;;;5113257;27;20039;-83
2022/04/07 12:33:08;;;;;;;11.13;2.05;;;9.90;99.90;;;;;;5113973;27;20043;-83
2022/04/07 12:35:48;;;;;;;9.13;2.05;;;9.80;99.90;;;;;;5129324;27;20107;-84
2022/04/07 12:38:14;;;;;;;8.25;2.38;;;9.70;99.90;;;;;;5131035;27;20449;-84
2022/04/07 12:40:40;;;;;;;8.88;1.70;;;9.70;99.90;;;;;;5130539;27;20129;-84
2022/04/07 12:43:06;;;;;;;12.65;2.78;;;9.80;99.90;;;;;;5112684;27;20396;-84
2022/04/07 12:45:31;;;;;;;6.82;1.65;;;9.90;99.90;;;;;;5129814;27;20063;-83
2022/04/07 12:48:11;;;;;;;6.93;1.85;;;9.90;99.90;;;;;;5096857;27;20043;-84
2022/04/07 12:50:37;;;;;;;8.52;1.83;;;10.20;99.90;;;;;;5129443;27;20039;-83
2022/04/07 12:53:03;;;;;;;4.90;1.40;;;10.70;99.90;;;;;;5112835;27;20047;-86
2022/04/07 12:55:38;;;;;;;10.90;2.03;;;10.80;99.90;;;;;;5113539;27;20058;-84
2022/04/07 12:58:04;;;;;;;8.20;1.55;;;11.00;99.90;;;;;;5128947;27;20051;-83
2022/04/07 13:00:34;;;;;;;6.40;1.33;;;11.20;99.90;;;;;;5127322;27;20111;-79
2022/04/07 13:03:02;;;;;;;4.30;1.30;;;11.30;99.90;;;;;;5130489;27;20081;-80
2022/04/07 13:05:35;;;;;;;12.25;2.15;;;11.20;99.90;;;;;;5130130;27;20047;-80
2022/04/07 13:08:04;;;;;;;6.35;1.45;;;10.90;99.90;;;;;;5113398;27;20055;-81
2022/04/07 13:10:31;;;;;;;6.35;1.40;;;10.70;99.90;;;;;;5129534;27;20055;-81
2022/04/07 13:12:57;;;;;;;5.50;1.60;;;10.60;99.90;;;;;;5095070;27;20090;-81
2022/04/07 13:15:23;;;;;;;9.00;1.30;;;10.50;99.90;;;;;;5129684;27;20047;-80
2022/04/07 13:17:49;;;;;;;5.15;1.20;;;10.40;99.90;;;;;;5130848;27;20058;-80
2022/04/07 13:20:16;;;;;;;6.05;1.60;;;10.40;99.90;;;;;;5113083;27;20043;-80
2022/04/07 13:22:42;;;;;;;6.95;1.83;;;10.30;99.90;;;;;;5115344;27;20051;-80
2022/04/07 13:25:08;;;;;;;6.95;1.60;;;10.20;99.90;;;;;;5109521;28;20051;-82
2022/04/07 13:27:34;;;;;;;;;;;10.00;99.90;;;;;;5103443;27;20055;-80
2022/04/07 13:30:00;;;;;;;0.20;0.20;;;8.90;99.90;;;;;;5116059;27;20429;-78
2022/04/07 13:32:25;;;;;;;0.30;0.30;;;6.40;99.90;;;;;;5094724;27;20551;-80
2022/04/07 13:34:52;;;;;;;0.30;0.30;;;6.10;99.90;;;;;;5128457;27;20046;-80
2022/04/07 13:37:18;;;;;;;0.30;0.30;;;6.40;99.90;;;;;;5130189;27;20477;-83
2022/04/07 13:39:44;;;;;;;0.30;0.30;;;7.10;99.90;;;;;;5112001;27;20430;-81
2022/04/07 13:42:10;;;;;;;0.30;0.30;;;7.50;99.90;;;;;;5128645;27;20051;-80
2022/04/07 13:44:37;;;;;;;0.20;0.20;;;7.40;99.90;;;;;;5128042;27;20499;-78
2022/04/07 13:47:02;;;;;;;;;;;7.20;99.90;;;;;;5112842;27;20050;-88
2022/04/07 13:49:28;;;;;;;0.20;0.20;;;7.00;99.90;;;;;;5128842;27;20032;-88
2022/04/07 13:51:55;;;;;;;0.20;0.20;;;6.80;99.90;;;;;;5111015;27;20050;-92
2022/04/07 13:54:22;;;;;;;0.20;0.20;;;6.50;99.90;;;;;;5127218;27;20501;-91
2022/04/07 13:56:47;;;;;;;0.20;0.20;;;6.20;99.90;;;;;;5112111;27;20043;-89
2022/04/07 13:59:13;;;;;;;0.98;0.98;;;6.00;99.90;;;;;;5108473;28;20046;-93
2022/04/07 14:01:39;;;;;;;0.20;0.20;;;7.40;99.90;;;;;;5092447;28;20059;-91
2022/04/07 14:04:05;;;;;;;0.20;0.20;;;6.70;99.90;;;;;;5110412;28;20047;-92